Pagrindinis puslapis
METAR-TAF:

METAR-TAF

Oro uostai :

Providensjalas, Terksas ir Kaikosas

platuma: 21-46-25N, ilguma: 072-15-57W, Aukštis: 5 m

Dabartinis oras

Ataskaita buvo paskelbta 30 valandos ir 17 minutes, ne 01:00 UTC
Vėjas 5 kt iš Šiaurės Rytų
Temperatūra 26°C
Drėgmė 74%
Slėgis 1016 hPa
Matomumas 10 km arba daugiau
Išsisklaidę debesys ne aukštis 1200 ft

METAR: MBPV 010100Z 05005KT 9999 SCT012 26/21 Q1016

Laikas: 02:17 (07:17 UTC)

Prognozė

Ataskaita buvo paskelbta 2 valandos ir 17 minutes, ne 05:00 UTC
Prognozė galioja nuo 02 metu 06 UTC su 03 metu 06 UTC
Vėjas 6 kt iš Rytų
Matomumas 10 km arba daugiau
Išsisklaidę debesys ne aukštis 3000 ft
Tikimybė 30% :
Laikinai
nuo 02 metu 15 UTC su 02 metu 19 UTC
Vėjas 10 kt iš Rytų
Matomumas: 8000 m
Mažai debesys ne aukštis 1500 ft, Liūtiniai kamuoliniai debesys.
Išsisklaidę debesys ne aukštis 1800 ft
Su prošvaistėmis ne aukštis 3000 ft
lietus

TAF: MBPV 020500Z 0206/0306 09006KT 9999 SCT030 PROB30 TEMPO 0215/0219 10010KT 8000 SHRA FEW015CB SCT018 BKN030

Orai ataskaitas ir orų prognozės (METAR, TAF).

turimą stotys yra geltonos ir raudonos taškus žemėlapyje.

Perkelti pele per norėdami pamatyti stoties vardą.

Tada spustelėkite, norėdami matyti oro stebėjimo ir prognozės.

Norėdami pakeisti žemėlapį: spustelėkite ant žalios mygtukų su juodo kryžiaus žemyn,; žalią mygtuką su brūkšneliu, jei norite nutolinti; arba žalių rodyklių gretimoms žemėlapius.


METAR-TAF: